Time;durP1;ratioP1;P1;durP2;ratioP2;P2;SDS_P1;SDS_P2;PMS_P1;PMS_P2;Temp;Humidity;BMP_temperature;BMP_pressure;BME280_temperature;BME280_humidity;BME280_pressure;Samples;Min_cycle;Max_cycle;Signal;HPM_P1;HPM_P2
2023/08/01 00:00:08;;;;;;;12.73;8.38;;;16.50;99.90;;;;;;5057539;28;20032;-35
2023/08/01 00:02:34;;;;;;;11.48;8.38;;;16.50;99.90;;;;;;5080910;28;20142;-35
2023/08/01 00:04:59;;;;;;;11.45;8.18;;;16.50;99.90;;;;;;5084586;28;20127;-35
2023/08/01 00:07:27;;;;;;;11.63;8.32;;;16.50;99.90;;;;;;5072965;28;20111;-35
2023/08/01 00:09:53;;;;;;;15.80;8.95;;;16.50;99.90;;;;;;5074857;28;20494;-35
2023/08/01 00:12:19;;;;;;;13.75;7.85;;;16.50;99.90;;;;;;5061413;28;20066;-35
2023/08/01 00:14:44;;;;;;;10.90;8.20;;;16.50;99.90;;;;;;5070588;28;20119;-35
2023/08/01 00:17:10;;;;;;;9.88;8.43;;;16.50;99.90;;;;;;5075815;28;20036;-35
2023/08/01 00:19:36;;;;;;;12.90;8.18;;;16.50;99.90;;;;;;5077876;28;20036;-35
2023/08/01 00:22:02;;;;;;;10.95;8.32;;;16.50;99.90;;;;;;5085295;28;20054;-34
2023/08/01 00:24:28;;;;;;;12.77;8.60;;;16.50;99.90;;;;;;5079864;28;20040;-34
2023/08/01 00:26:56;;;;;;;16.83;9.27;;;16.50;99.90;;;;;;5086706;28;20046;-35
2023/08/01 00:29:22;;;;;;;14.25;8.68;;;16.50;99.90;;;;;;5079209;28;20051;-35
2023/08/01 00:31:48;;;;;;;12.13;8.82;;;16.50;99.90;;;;;;5061742;28;20440;-35
2023/08/01 00:34:16;;;;;;;9.77;8.75;;;16.50;99.90;;;;;;5087809;28;20073;-34
2023/08/01 00:36:42;;;;;;;14.10;8.63;;;16.50;99.90;;;;;;5063272;28;20040;-34
2023/08/01 00:39:09;;;;;;;14.90;9.52;;;16.40;99.90;;;;;;5074221;28;20043;-34
2023/08/01 00:41:35;;;;;;;11.27;9.05;;;16.40;99.90;;;;;;5056432;28;20120;-35
2023/08/01 00:44:01;;;;;;;13.80;9.48;;;16.40;99.90;;;;;;5076121;28;20136;-35
2023/08/01 00:46:27;;;;;;;9.88;8.75;;;16.40;99.90;;;;;;5065630;28;20041;-34
2023/08/01 00:48:57;;;;;;;13.43;8.75;;;16.40;99.90;;;;;;5066518;28;20037;-34
2023/08/01 00:51:24;;;;;;;13.48;9.30;;;16.40;99.90;;;;;;5071639;28;20070;-34
2023/08/01 00:53:51;;;;;;;13.63;9.20;;;16.40;99.90;;;;;;5082978;28;20438;-35
2023/08/01 00:56:17;;;;;;;11.95;8.05;;;16.40;99.90;;;;;;5061133;28;20113;-34
2023/08/01 00:58:43;;;;;;;12.15;8.95;;;16.30;99.90;;;;;;5052087;28;20298;-35
2023/08/01 01:01:08;;;;;;;9.98;7.88;;;16.40;99.90;;;;;;5072248;28;20450;-34
2023/08/01 01:03:36;;;;;;;11.25;8.40;;;16.40;99.90;;;;;;5078887;28;20497;-35
2023/08/01 01:06:22;;;;;;;12.48;8.40;;;16.40;99.90;;;;;;5064954;28;20537;-34
2023/08/01 01:08:48;;;;;;;14.05;7.85;;;16.40;99.90;;;;;;5088805;28;20131;-34
2023/08/01 01:11:14;;;;;;;15.63;8.13;;;16.30;99.90;;;;;;5068769;28;21899;-34
2023/08/01 01:13:40;;;;;;;11.38;7.63;;;16.30;99.90;;;;;;5070590;28;20067;-34
2023/08/01 01:16:06;;;;;;;13.18;7.82;;;16.40;99.90;;;;;;5067876;28;20097;-34
2023/08/01 01:18:31;;;;;;;11.25;7.32;;;16.30;99.90;;;;;;5073086;28;20115;-34
2023/08/01 01:21:00;;;;;;;11.10;7.57;;;16.30;99.90;;;;;;5077723;28;20035;-35
2023/08/01 01:23:27;;;;;;;10.93;7.20;;;16.30;99.90;;;;;;5060182;28;20389;-35
2023/08/01 01:25:57;;;;;;;10.82;7.80;;;16.30;99.90;;;;;;5074625;28;20036;-35
2023/08/01 01:28:24;;;;;;;15.48;9.13;;;16.30;99.90;;;;;;5071994;28;20036;-35
2023/08/01 01:30:52;;;;;;;12.85;8.07;;;16.20;99.90;;;;;;5073599;28;20044;-35
2023/08/01 01:33:18;;;;;;;11.05;6.68;;;16.30;99.90;;;;;;5074957;28;20041;-35
2023/08/01 01:35:44;;;;;;;9.70;7.18;;;16.30;99.90;;;;;;5070820;28;20123;-34
2023/08/01 01:38:10;;;;;;;11.73;7.38;;;16.30;99.90;;;;;;5078880;28;20520;-35
2023/08/01 01:40:36;;;;;;;9.93;6.85;;;16.20;99.90;;;;;;5053953;28;20471;-35
2023/08/01 01:43:02;;;;;;;16.08;7.68;;;16.20;99.90;;;;;;5081129;28;20040;-34
2023/08/01 01:45:28;;;;;;;11.15;7.78;;;16.20;99.90;;;;;;5074759;28;20040;-35
2023/08/01 01:47:54;;;;;;;12.70;6.95;;;16.20;99.90;;;;;;5075435;28;20109;-34
2023/08/01 01:50:20;;;;;;;9.85;6.82;;;16.20;99.90;;;;;;5073186;28;20485;-35
2023/08/01 01:52:46;;;;;;;12.68;7.70;;;16.20;99.90;;;;;;5074787;28;20079;-35
2023/08/01 01:55:12;;;;;;;9.82;7.65;;;16.10;99.90;;;;;;5080927;28;20505;-35
2023/08/01 01:57:38;;;;;;;12.35;7.68;;;16.20;99.90;;;;;;5082295;28;20028;-35
2023/08/01 02:00:10;;;;;;;12.98;8.52;;;16.10;99.90;;;;;;5070933;28;20500;-35
2023/08/01 02:02:36;;;;;;;10.48;7.22;;;16.10;99.90;;;;;;5074123;28;20501;-35
2023/08/01 02:05:05;;;;;;;13.65;7.35;;;16.10;99.90;;;;;;5057725;28;20513;-35
2023/08/01 02:07:31;;;;;;;12.52;7.30;;;16.00;99.90;;;;;;5075255;28;20040;-35
2023/08/01 02:09:57;;;;;;;13.68;7.43;;;16.00;99.90;;;;;;5074902;28;20047;-35
2023/08/01 02:12:23;;;;;;;15.32;7.50;;;16.00;99.90;;;;;;5074208;28;20089;-35
2023/08/01 02:14:51;;;;;;;11.30;6.40;;;16.00;99.90;;;;;;5037130;28;20040;-34
2023/08/01 02:17:17;;;;;;;10.35;6.80;;;15.90;99.90;;;;;;5082084;28;20165;-37
2023/08/01 02:19:43;;;;;;;9.32;6.53;;;15.90;99.90;;;;;;5052976;28;20524;-35
2023/08/01 02:22:08;;;;;;;9.68;6.80;;;15.90;99.90;;;;;;5052606;28;20106;-35
2023/08/01 02:24:34;;;;;;;10.88;7.15;;;15.90;99.90;;;;;;5070273;28;20456;-35
2023/08/01 02:27:00;;;;;;;12.25;7.70;;;15.80;99.90;;;;;;5075103;28;20067;-35
2023/08/01 02:29:25;;;;;;;11.80;6.70;;;15.90;99.90;;;;;;5074329;28;20040;-35
2023/08/01 02:31:51;;;;;;;9.95;6.57;;;15.90;99.90;;;;;;5085138;28;20036;-34
2023/08/01 02:34:17;;;;;;;11.23;7.20;;;15.90;99.90;;;;;;5075424;28;20029;-34
2023/08/01 02:36:42;;;;;;;9.93;6.85;;;15.90;99.90;;;;;;5058188;28;20043;-36
2023/08/01 02:39:08;;;;;;;9.50;6.90;;;15.90;99.90;;;;;;5078120;28;20071;-34
2023/08/01 02:41:34;;;;;;;11.85;6.53;;;15.90;99.90;;;;;;5057003;28;20036;-35
2023/08/01 02:43:59;;;;;;;13.57;6.97;;;15.90;99.90;;;;;;5069709;28;20444;-35
2023/08/01 02:46:27;;;;;;;10.55;6.95;;;15.80;99.90;;;;;;5070264;28;20032;-35
2023/08/01 02:48:54;;;;;;;9.85;6.47;;;15.80;99.90;;;;;;5082543;28;20070;-35
2023/08/01 02:51:19;;;;;;;10.65;6.82;;;15.80;99.90;;;;;;5069594;28;20085;-35
2023/08/01 02:53:46;;;;;;;11.18;6.25;;;15.80;99.90;;;;;;5075684;28;20481;-35
2023/08/01 02:56:12;;;;;;;8.85;6.20;;;15.80;99.90;;;;;;5077158;28;20059;-35
2023/08/01 02:58:38;;;;;;;13.20;6.97;;;15.70;99.90;;;;;;5080487;28;20032;-35
2023/08/01 03:01:09;;;;;;;9.18;6.20;;;15.70;99.90;;;;;;5059482;28;20103;-35
2023/08/01 03:03:36;;;;;;;8.65;6.05;;;15.60;99.90;;;;;;5056162;28;20086;-34
2023/08/01 03:06:02;;;;;;;12.02;6.47;;;15.60;99.90;;;;;;5076831;28;20041;-35
2023/08/01 03:08:27;;;;;;;11.20;6.75;;;15.60;99.90;;;;;;5066110;28;20040;-34
2023/08/01 03:10:57;;;;;;;10.25;6.40;;;15.60;99.90;;;;;;5070003;28;20040;-35
2023/08/01 03:13:26;;;;;;;11.38;6.28;;;15.60;99.90;;;;;;5080527;28;20098;-34
2023/08/01 03:15:55;;;;;;;8.48;6.32;;;15.60;99.90;;;;;;5084988;28;20036;-35
2023/08/01 03:18:23;;;;;;;10.70;6.25;;;15.60;99.90;;;;;;5069955;28;20107;-35
2023/08/01 03:20:50;;;;;;;12.38;5.78;;;15.60;99.90;;;;;;5079780;28;20043;-35
2023/08/01 03:23:17;;;;;;;10.20;5.47;;;15.60;99.90;;;;;;5076552;28;20107;-35
2023/08/01 03:25:45;;;;;;;9.18;5.72;;;15.50;99.90;;;;;;5078195;28;20048;-34
2023/08/01 03:28:14;;;;;;;9.32;5.70;;;15.50;99.90;;;;;;5070654;28;20413;-34
2023/08/01 03:30:40;;;;;;;11.20;6.40;;;15.50;99.90;;;;;;5069211;28;20036;-35
2023/08/01 03:33:06;;;;;;;9.23;6.30;;;15.50;99.90;;;;;;5069953;28;20037;-35
2023/08/01 03:35:31;;;;;;;10.45;6.03;;;15.40;99.90;;;;;;5067549;28;20043;-34
2023/08/01 03:37:57;;;;;;;12.93;6.30;;;15.40;99.90;;;;;;5079918;28;20393;-34
2023/08/01 03:40:24;;;;;;;10.23;6.45;;;15.40;99.90;;;;;;5075910;28;20107;-34
2023/08/01 03:42:49;;;;;;;10.43;6.28;;;15.30;99.90;;;;;;5080836;28;20067;-34
2023/08/01 03:45:15;;;;;;;13.25;6.18;;;15.30;99.90;;;;;;5080933;28;20036;-34
2023/08/01 03:47:41;;;;;;;13.13;6.03;;;15.40;99.90;;;;;;5072616;28;20048;-34
2023/08/01 03:50:07;;;;;;;10.40;5.72;;;15.30;99.90;;;;;;5069625;28;20037;-34
2023/08/01 03:52:32;;;;;;;12.18;6.40;;;15.40;99.90;;;;;;5081298;28;20044;-34
2023/08/01 03:54:58;;;;;;;12.82;6.15;;;15.30;99.90;;;;;;5074104;28;20032;-34
2023/08/01 03:57:24;;;;;;;11.52;6.32;;;15.40;99.90;;;;;;5076107;28;20058;-34
2023/08/01 03:59:51;;;;;;;11.88;6.18;;;15.40;99.90;;;;;;5075823;28;20036;-34
2023/08/01 04:02:17;;;;;;;13.52;6.70;;;15.30;99.90;;;;;;5072257;28;20044;-34
2023/08/01 04:04:42;;;;;;;13.80;6.95;;;15.40;99.90;;;;;;5042545;28;20041;-34
2023/08/01 04:07:08;;;;;;;12.27;6.40;;;15.40;99.90;;;;;;5065777;28;20412;-34
2023/08/01 04:09:34;;;;;;;10.00;6.28;;;15.30;99.90;;;;;;5067266;28;20054;-34
2023/08/01 04:12:00;;;;;;;3.42;3.13;;;15.30;99.90;;;;;;5056334;28;20032;-34
2023/08/01 04:14:25;;;;;;;4.38;2.97;;;15.30;99.90;;;;;;5077437;28;20028;-34
2023/08/01 04:16:51;;;;;;;7.22;3.50;;;15.20;99.90;;;;;;5040292;28;20036;-33
2023/08/01 04:19:17;;;;;;;4.53;2.60;;;15.20;99.90;;;;;;5069394;28;20036;-34
2023/08/01 04:21:43;;;;;;;4.47;2.63;;;15.20;99.90;;;;;;5064553;28;20059;-34
2023/08/01 04:24:08;;;;;;;5.90;2.78;;;15.20;99.90;;;;;;5083550;28;20419;-34
2023/08/01 04:26:36;;;;;;;5.10;3.00;;;15.20;99.90;;;;;;5067340;28;20043;-34
2023/08/01 04:29:02;;;;;;;3.78;2.55;;;15.20;99.90;;;;;;5079940;28;20036;-33
2023/08/01 04:31:28;;;;;;;2.72;1.83;;;15.10;99.90;;;;;;5081264;28;20123;-34
2023/08/01 04:33:53;;;;;;;2.78;2.13;;;15.10;99.90;;;;;;5075910;28;20060;-34
2023/08/01 04:36:19;;;;;;;2.38;1.58;;;15.00;99.90;;;;;;5070751;28;20032;-34
2023/08/01 04:38:44;;;;;;;3.03;1.52;;;15.00;99.90;;;;;;5082580;28;20481;-34
2023/08/01 04:41:10;;;;;;;3.20;1.80;;;15.00;99.90;;;;;;5086036;28;20123;-34
2023/08/01 04:43:36;;;;;;;2.92;1.77;;;15.00;99.90;;;;;;5083135;28;20070;-34
2023/08/01 04:46:01;;;;;;;3.50;1.67;;;15.00;99.90;;;;;;5077687;28;20032;-34
2023/08/01 04:48:27;;;;;;;1.52;1.30;;;14.90;99.90;;;;;;5065370;28;20031;-34
2023/08/01 04:50:53;;;;;;;2.92;1.80;;;15.00;99.90;;;;;;5078394;28;20036;-34
2023/08/01 04:53:18;;;;;;;2.35;1.80;;;14.90;99.90;;;;;;5075815;28;20079;-34
2023/08/01 04:55:44;;;;;;;3.55;2.00;;;14.90;99.90;;;;;;5072943;28;20040;-34
2023/08/01 04:58:09;;;;;;;2.72;1.80;;;15.00;99.90;;;;;;5077837;28;20034;-34
2023/08/01 05:00:35;;;;;;;2.35;1.80;;;15.00;99.90;;;;;;5070190;28;20032;-34
2023/08/01 05:03:01;;;;;;;3.33;2.17;;;15.00;99.90;;;;;;5065269;28;20067;-35
2023/08/01 05:05:27;;;;;;;4.05;2.30;;;15.00;99.90;;;;;;5049023;28;20047;-34
2023/08/01 05:07:52;;;;;;;3.80;2.28;;;15.00;99.90;;;;;;5071158;28;20496;-34
2023/08/01 05:10:18;;;;;;;3.05;2.53;;;15.10;99.90;;;;;;5075306;28;20032;-34
2023/08/01 05:12:44;;;;;;;5.30;2.45;;;15.10;99.90;;;;;;5069269;28;20142;-34
2023/08/01 05:15:10;;;;;;;4.68;2.63;;;15.20;99.90;;;;;;5053360;28;20465;-34
2023/08/01 05:17:35;;;;;;;4.10;2.22;;;15.30;99.90;;;;;;5053437;28;20385;-34
2023/08/01 05:20:03;;;;;;;4.72;2.20;;;15.40;99.90;;;;;;5058098;28;20032;-35
2023/08/01 05:22:29;;;;;;;4.63;2.40;;;15.40;99.90;;;;;;5082745;28;20107;-34
2023/08/01 05:24:54;;;;;;;4.75;2.40;;;15.40;99.90;;;;;;5049330;28;20127;-34
2023/08/01 05:27:20;;;;;;;6.60;2.60;;;15.50;99.90;;;;;;5075540;28;20036;-34
2023/08/01 05:29:46;;;;;;;3.70;2.20;;;15.50;99.90;;;;;;5052910;28;20044;-34
2023/08/01 05:32:11;;;;;;;5.00;2.40;;;15.50;99.90;;;;;;5073526;28;20040;-35
2023/08/01 05:34:37;;;;;;;3.65;2.30;;;15.50;99.90;;;;;;5069198;28;20064;-34
2023/08/01 05:37:03;;;;;;;3.53;2.25;;;15.60;99.90;;;;;;5050020;28;20036;-34
2023/08/01 05:39:28;;;;;;;3.45;3.15;;;15.60;99.90;;;;;;5067986;28;20033;-34
2023/08/01 05:41:54;;;;;;;3.67;2.33;;;15.60;99.90;;;;;;5063886;28;20076;-34
2023/08/01 05:44:20;;;;;;;7.05;2.80;;;15.60;99.90;;;;;;5071047;28;20059;-34
2023/08/01 05:46:45;;;;;;;5.38;2.70;;;15.50;99.90;;;;;;5076929;28;20404;-34
2023/08/01 05:49:11;;;;;;;5.90;2.42;;;15.50;99.90;;;;;;5079628;28;20028;-34
2023/08/01 05:51:37;;;;;;;4.72;2.40;;;15.50;99.90;;;;;;5053721;28;20033;-34
2023/08/01 05:54:02;;;;;;;4.82;2.50;;;15.50;99.90;;;;;;5052545;28;20423;-34
2023/08/01 05:56:29;;;;;;;4.40;3.08;;;15.50;99.90;;;;;;5067136;28;20094;-34
2023/08/01 05:58:55;;;;;;;6.15;2.97;;;15.50;99.90;;;;;;5044138;28;20040;-34
2023/08/01 06:01:22;;;;;;;4.68;2.90;;;15.50;99.90;;;;;;5064806;28;20037;-34
2023/08/01 06:03:47;;;;;;;5.18;3.03;;;15.50;99.90;;;;;;5062161;28;20047;-34
2023/08/01 06:06:13;;;;;;;3.55;2.50;;;15.50;99.90;;;;;;5063602;28;20409;-36
2023/08/01 06:08:39;;;;;;;5.53;2.13;;;15.40;99.90;;;;;;5062688;28;20119;-33
2023/08/01 06:11:04;;;;;;;4.85;2.50;;;15.40;99.90;;;;;;5062700;28;20037;-33
2023/08/01 06:13:30;;;;;;;5.00;2.35;;;15.40;99.90;;;;;;5062632;28;20048;-34
2023/08/01 06:15:56;;;;;;;4.40;2.33;;;15.30;99.90;;;;;;5065553;28;20079;-33
2023/08/01 06:18:22;;;;;;;4.13;2.10;;;15.30;99.90;;;;;;5060335;28;20489;-34
2023/08/01 06:20:48;;;;;;;3.47;2.47;;;15.20;99.90;;;;;;5060743;28;20024;-33
2023/08/01 06:23:13;;;;;;;3.83;2.38;;;15.20;99.90;;;;;;5065833;28;20490;-33
2023/08/01 06:25:39;;;;;;;3.03;2.25;;;15.20;99.90;;;;;;5066239;28;20502;-33
2023/08/01 06:28:05;;;;;;;4.60;2.70;;;15.20;99.90;;;;;;5059780;28;20037;-34
2023/08/01 06:30:30;;;;;;;3.72;2.60;;;15.30;99.90;;;;;;5064399;28;20033;-33
2023/08/01 06:32:56;;;;;;;7.82;3.00;;;15.40;99.90;;;;;;5045400;28;20093;-34
2023/08/01 06:35:22;;;;;;;4.18;2.90;;;15.50;99.90;;;;;;5064044;28;20041;-34
2023/08/01 06:37:48;;;;;;;8.05;3.33;;;15.60;99.90;;;;;;5062472;28;20024;-34
2023/08/01 06:40:13;;;;;;;8.18;3.60;;;15.70;99.90;;;;;;5066538;28;20265;-35
2023/08/01 06:42:40;;;;;;;5.63;3.60;;;15.80;99.90;;;;;;5065927;28;20437;-35
2023/08/01 06:45:06;;;;;;;9.45;4.10;;;16.00;99.90;;;;;;5065876;28;20622;-35
2023/08/01 06:47:32;;;;;;;5.82;4.18;;;16.10;99.90;;;;;;5063571;28;20029;-36
2023/08/01 06:49:58;;;;;;;5.15;4.45;;;16.10;99.90;;;;;;5068682;28;20180;-35
2023/08/01 06:52:23;;;;;;;9.90;4.40;;;16.20;99.90;;;;;;5063086;28;20032;-35
2023/08/01 06:54:49;;;;;;;4.78;4.28;;;16.20;99.90;;;;;;5065678;28;20405;-36
2023/08/01 06:57:15;;;;;;;7.20;4.53;;;16.30;99.90;;;;;;5067891;28;20032;-36
2023/08/01 06:59:40;;;;;;;5.97;4.00;;;16.20;99.90;;;;;;5064581;28;20041;-35
2023/08/01 07:02:08;;;;;;;6.85;4.32;;;16.30;99.90;;;;;;5065948;28;20043;-38
2023/08/01 07:04:34;;;;;;;4.28;3.13;;;16.40;99.90;;;;;;5060027;28;20043;-36
2023/08/01 07:07:00;;;;;;;5.00;2.80;;;16.40;99.90;;;;;;5070556;28;20036;-37
2023/08/01 07:09:26;;;;;;;4.45;2.75;;;16.50;99.90;;;;;;5054588;28;20032;-36
2023/08/01 07:11:51;;;;;;;6.07;2.80;;;16.50;99.90;;;;;;5074020;28;20036;-37
2023/08/01 07:14:17;;;;;;;6.32;3.55;;;16.50;99.90;;;;;;5073979;28;20397;-36
2023/08/01 07:16:43;;;;;;;5.40;2.88;;;16.60;99.90;;;;;;5067468;28;20127;-37
2023/08/01 07:19:08;;;;;;;4.28;2.97;;;16.50;99.90;;;;;;5070411;28;20033;-37
2023/08/01 07:21:34;;;;;;;6.03;3.35;;;16.60;99.90;;;;;;5065489;28;20090;-36
2023/08/01 07:24:00;;;;;;;6.63;4.07;;;16.60;99.90;;;;;;5073962;28;20044;-36
2023/08/01 07:26:25;;;;;;;8.75;3.80;;;16.70;99.90;;;;;;5051156;28;20059;-36
2023/08/01 07:28:51;;;;;;;6.72;3.40;;;16.80;99.90;;;;;;5070262;28;20043;-37
2023/08/01 07:31:17;;;;;;;6.25;3.63;;;16.90;99.90;;;;;;5073770;28;20032;-37
2023/08/01 07:33:43;;;;;;;5.28;3.15;;;17.00;99.90;;;;;;5085286;28;20102;-36
2023/08/01 07:36:08;;;;;;;6.57;3.60;;;17.20;99.90;;;;;;5075627;28;20036;-36
2023/08/01 07:38:34;;;;;;;6.05;3.10;;;17.40;99.90;;;;;;5067420;28;20043;-36
2023/08/01 07:41:04;;;;;;;6.65;3.00;;;17.50;99.90;;;;;;5075157;28;20028;-37
2023/08/01 07:43:30;;;;;;;4.32;2.72;;;17.50;99.90;;;;;;5073665;28;20123;-37
2023/08/01 07:45:59;;;;;;;5.00;3.03;;;17.50;99.90;;;;;;5071099;28;20167;-37
2023/08/01 07:48:25;;;;;;;3.60;2.58;;;17.50;99.90;;;;;;5072210;28;20400;-37
2023/08/01 07:50:51;;;;;;;3.72;2.70;;;17.50;99.90;;;;;;5069985;28;20039;-36
2023/08/01 07:53:16;;;;;;;3.30;2.58;;;17.50;99.90;;;;;;5053821;28;20109;-36
2023/08/01 07:55:42;;;;;;;6.95;2.70;;;17.40;99.90;;;;;;5071450;28;20089;-37
2023/08/01 07:58:08;;;;;;;4.80;2.45;;;17.40;99.90;;;;;;5090631;28;20150;-37
2023/08/01 08:00:36;;;;;;;4.43;2.85;;;17.30;99.90;;;;;;5076234;28;20040;-36
2023/08/01 08:03:02;;;;;;;5.43;2.58;;;17.20;99.90;;;;;;5071445;28;20403;-37
2023/08/01 08:05:28;;;;;;;4.30;2.53;;;17.10;99.90;;;;;;5055788;28;20060;-36
2023/08/01 08:07:53;;;;;;;9.13;2.78;;;17.10;99.90;;;;;;5076214;28;20036;-36
2023/08/01 08:10:19;;;;;;;4.55;2.45;;;17.00;99.90;;;;;;5081618;28;20044;-36
2023/08/01 08:12:45;;;;;;;6.85;3.20;;;16.90;99.90;;;;;;5067384;28;20576;-36
2023/08/01 08:15:13;;;;;;;8.07;2.63;;;16.90;99.90;;;;;;5052421;28;20036;-36
2023/08/01 08:17:38;;;;;;;9.00;3.17;;;16.90;99.90;;;;;;5072089;28;20517;-36
2023/08/01 08:20:06;;;;;;;7.25;2.95;;;16.90;99.90;;;;;;5072016;28;20110;-37
2023/08/01 08:22:31;;;;;;;4.78;2.38;;;16.90;99.90;;;;;;5076282;28;20048;-37
2023/08/01 08:24:57;;;;;;;5.25;2.50;;;16.90;99.90;;;;;;5072455;28;20036;-37
2023/08/01 08:27:23;;;;;;;7.38;3.15;;;16.80;99.90;;;;;;5075801;28;20477;-37
2023/08/01 08:29:49;;;;;;;7.57;3.00;;;16.80;99.90;;;;;;5078117;28;20037;-38
2023/08/01 08:32:15;;;;;;;8.00;3.22;;;16.80;99.90;;;;;;5077200;28;20047;-36
2023/08/01 08:34:40;;;;;;;4.43;2.50;;;16.80;99.90;;;;;;5083973;28;20036;-37
2023/08/01 08:37:06;;;;;;;6.38;3.00;;;16.80;99.90;;;;;;5083840;28;20477;-36
2023/08/01 08:39:32;;;;;;;6.50;3.08;;;16.70;99.90;;;;;;5079782;28;20377;-36
2023/08/01 08:41:59;;;;;;;8.38;2.92;;;16.60;99.90;;;;;;5081045;28;20035;-37
2023/08/01 08:44:24;;;;;;;3.97;2.88;;;16.50;99.90;;;;;;5051487;28;20049;-36
2023/08/01 08:46:52;;;;;;;5.65;3.50;;;16.40;99.90;;;;;;5086069;28;20062;-37
2023/08/01 08:49:21;;;;;;;4.88;3.30;;;16.40;99.90;;;;;;5073056;28;20033;-37
2023/08/01 08:51:48;;;;;;;4.50;3.40;;;16.40;99.90;;;;;;5089672;28;20051;-36
2023/08/01 08:54:16;;;;;;;4.90;2.97;;;16.40;99.90;;;;;;5082333;28;20033;-37
2023/08/01 08:56:42;;;;;;;7.88;3.83;;;16.50;99.90;;;;;;5072920;28;20535;-37
2023/08/01 08:59:11;;;;;;;9.30;3.55;;;16.60;99.90;;;;;;5075267;28;20028;-37
2023/08/01 09:01:38;;;;;;;10.05;3.85;;;16.70;99.90;;;;;;5072789;28;20094;-36
2023/08/01 09:04:04;;;;;;;8.68;4.20;;;16.80;99.90;;;;;;5088386;28;20420;-37
2023/08/01 09:06:34;;;;;;;7.03;3.88;;;16.80;99.90;;;;;;5072328;28;20115;-36
2023/08/01 09:09:15;;;;;;;8.52;4.13;;;16.90;99.90;;;;;;5072938;28;20032;-37
2023/08/01 09:11:50;;;;;;;8.07;3.80;;;17.00;99.90;;;;;;5060228;28;20490;-37
2023/08/01 09:14:16;;;;;;;5.10;3.58;;;17.00;99.90;;;;;;5074058;28;20075;-37
2023/08/01 09:16:43;;;;;;;7.43;3.60;;;17.10;99.90;;;;;;5080087;28;20456;-37
2023/08/01 09:19:12;;;;;;;8.60;4.68;;;17.10;99.90;;;;;;5059117;28;20071;-37
2023/08/01 09:21:39;;;;;;;12.35;4.50;;;17.20;99.90;;;;;;5069383;28;20032;-37
2023/08/01 09:24:12;;;;;;;8.30;4.10;;;17.10;99.90;;;;;;5076770;28;20481;-36
2023/08/01 09:26:47;;;;;;;10.10;4.30;;;17.00;99.90;;;;;;5070699;28;20041;-36
2023/08/01 09:29:19;;;;;;;6.75;2.80;;;16.80;99.90;;;;;;5059121;28;20036;-36
2023/08/01 09:31:49;;;;;;;6.55;3.03;;;16.60;99.90;;;;;;5060234;28;20049;-36
2023/08/01 09:34:23;;;;;;;5.88;3.10;;;16.40;99.90;;;;;;5077665;28;20047;-36
2023/08/01 09:36:49;;;;;;;17.08;4.88;;;16.40;99.90;;;;;;5074454;28;20041;-37
2023/08/01 09:39:21;;;;;;;6.90;3.20;;;16.30;99.90;;;;;;5078145;28;20092;-37
2023/08/01 09:42:07;;;;;;;5.25;3.25;;;16.20;99.90;;;;;;5072782;28;20102;-36
2023/08/01 09:44:36;;;;;;;3.80;2.83;;;16.10;99.90;;;;;;5076685;28;20044;-36
2023/08/01 09:47:08;;;;;;;7.65;3.00;;;16.00;99.90;;;;;;5077302;28;20036;-36
2023/08/01 09:49:36;;;;;;;4.25;2.72;;;16.00;99.90;;;;;;5069432;28;20060;-37
2023/08/01 09:52:02;;;;;;;5.65;3.30;;;15.90;99.90;;;;;;5073494;28;20096;-37
2023/08/01 09:54:28;;;;;;;7.20;3.30;;;15.90;99.90;;;;;;5067471;28;20124;-36
2023/08/01 09:56:55;;;;;;;8.75;3.65;;;15.80;99.90;;;;;;5066470;28;20119;-36
2023/08/01 09:59:23;;;;;;;6.05;3.40;;;15.80;99.90;;;;;;5070980;28;20396;-36
2023/08/01 10:02:01;;;;;;;5.68;3.38;;;15.90;99.90;;;;;;5066445;28;20036;-37
2023/08/01 10:04:29;;;;;;;6.78;3.15;;;15.90;99.90;;;;;;5077417;28;20028;-37
2023/08/01 10:07:05;;;;;;;8.00;3.95;;;15.90;99.90;;;;;;5070456;28;20028;-37
2023/08/01 10:09:31;;;;;;;4.65;3.75;;;16.10;99.90;;;;;;5073952;28;20028;-37
2023/08/01 10:11:58;;;;;;;8.60;4.18;;;16.10;99.90;;;;;;5088027;28;20050;-36
2023/08/01 10:14:25;;;;;;;6.05;3.83;;;16.20;99.90;;;;;;5078003;28;20029;-37
2023/08/01 10:16:52;;;;;;;6.90;4.20;;;16.30;99.90;;;;;;5076187;28;20064;-36
2023/08/01 10:19:19;;;;;;;6.18;3.58;;;16.50;99.90;;;;;;5078941;28;20032;-37
2023/08/01 10:21:47;;;;;;;4.72;3.63;;;16.70;99.90;;;;;;5072717;28;20059;-37
2023/08/01 10:24:16;;;;;;;6.57;4.18;;;16.80;99.90;;;;;;5078830;28;20036;-37
2023/08/01 10:27:06;;;;;;;5.00;3.88;;;16.80;99.90;;;;;;5049646;28;20041;-37
2023/08/01 10:29:40;;;;;;;8.15;4.25;;;16.90;99.90;;;;;;5065396;28;20435;-37
2023/08/01 10:32:12;;;;;;;6.47;4.20;;;17.00;99.90;;;;;;5075238;28;20269;-36
2023/08/01 10:34:50;;;;;;;5.97;3.70;;;17.20;99.90;;;;;;5080723;28;20031;-37
2023/08/01 10:37:16;;;;;;;4.82;3.45;;;17.40;99.90;;;;;;5064987;28;20052;-38
2023/08/01 10:39:42;;;;;;;5.25;3.30;;;17.50;99.90;;;;;;5072128;28;20055;-37
2023/08/01 10:42:14;;;;;;;3.95;3.03;;;17.50;99.90;;;;;;5081019;28;20383;-37
2023/08/01 10:44:46;;;;;;;5.65;3.13;;;17.50;99.90;;;;;;5070091;28;20044;-36
2023/08/01 10:47:15;;;;;;;3.17;2.88;;;17.40;99.90;;;;;;5077949;28;20028;-37
2023/08/01 10:49:42;;;;;;;6.22;3.05;;;17.50;99.90;;;;;;5072447;28;20041;-36
2023/08/01 10:52:19;;;;;;;4.00;2.95;;;17.50;99.90;;;;;;5074405;28;20041;-36
2023/08/01 10:54:46;;;;;;;5.28;3.33;;;17.80;99.90;;;;;;5080206;28;20102;-37
2023/08/01 10:57:18;;;;;;;5.38;2.22;;;18.10;99.90;;;;;;5070812;28;20162;-37
2023/08/01 10:59:44;;;;;;;3.58;2.60;;;18.50;99.90;;;;;;5080113;28;20068;-36
2023/08/01 11:02:10;;;;;;;4.25;2.55;;;18.60;99.90;;;;;;5079181;28;20212;-37
2023/08/01 11:04:36;;;;;;;5.40;2.58;;;18.60;99.90;;;;;;5070332;28;20189;-36
2023/08/01 11:07:04;;;;;;;4.85;2.33;;;18.60;99.90;;;;;;5077301;28;20047;-36
2023/08/01 11:09:30;;;;;;;6.30;2.53;;;18.40;99.90;;;;;;5082249;28;20549;-37
2023/08/01 11:12:00;;;;;;;7.85;2.42;;;18.20;99.90;;;;;;5076920;28;20151;-36
2023/08/01 11:14:33;;;;;;;4.88;2.72;;;17.90;99.90;;;;;;5073185;28;20112;-37
2023/08/01 11:17:11;;;;;;;4.65;2.60;;;17.70;99.90;;;;;;5073181;28;20388;-37
2023/08/01 11:19:40;;;;;;;6.22;2.50;;;17.50;99.90;;;;;;5070092;28;20029;-37
2023/08/01 11:23:05;;;;;;;6.57;2.50;;;17.30;99.90;;;;;;5075159;28;20499;-36
2023/08/01 11:29:55;;;;;;;6.50;2.47;;;16.80;99.90;;;;;;5035854;28;20587;-37
2023/08/01 11:33:18;;;;;;;6.70;2.55;;;16.80;99.90;;;;;;5065435;28;20497;-37
2023/08/01 11:35:57;;;;;;;4.80;2.75;;;16.90;99.90;;;;;;4977457;28;20039;-37
2023/08/01 11:38:29;;;;;;;6.40;2.97;;;17.10;99.90;;;;;;4975533;28;20135;-37
2023/08/01 11:41:09;;;;;;;7.15;2.58;;;17.40;99.90;;;;;;5039237;28;20052;-37
2023/08/01 11:43:42;;;;;;;4.55;2.63;;;17.70;99.90;;;;;;5066128;28;20041;-36
2023/08/01 11:46:08;;;;;;;2.72;2.15;;;18.00;99.90;;;;;;5066986;28;20496;-38
2023/08/01 11:48:37;;;;;;;4.00;2.05;;;18.10;99.90;;;;;;5064126;28;20071;-37
2023/08/01 11:51:06;;;;;;;5.28;2.17;;;18.00;99.90;;;;;;5054227;28;20458;-37
2023/08/01 11:53:38;;;;;;;3.17;2.03;;;17.90;99.90;;;;;;5065766;28;20049;-38
2023/08/01 11:56:04;;;;;;;6.90;2.40;;;17.70;99.90;;;;;;5070716;28;20440;-38
2023/08/01 11:58:34;;;;;;;5.68;2.80;;;17.80;99.90;;;;;;5062378;28;20083;-37
2023/08/01 12:01:03;;;;;;;5.32;2.45;;;18.20;99.90;;;;;;5069617;28;20036;-38
2023/08/01 12:03:44;;;;;;;4.82;2.25;;;18.80;99.90;;;;;;5076375;28;20072;-38
2023/08/01 12:06:11;;;;;;;5.03;2.33;;;19.10;99.90;;;;;;5059981;28;20150;-37
2023/08/01 12:08:38;;;;;;;6.30;2.60;;;19.20;99.90;;;;;;5038411;28;20441;-37
2023/08/01 12:11:04;;;;;;;4.97;2.33;;;19.60;99.90;;;;;;5072017;28;20039;-37
2023/08/01 12:13:32;;;;;;;3.63;1.70;;;20.40;99.90;;;;;;5066619;28;20045;-38
2023/08/01 12:15:58;;;;;;;3.88;2.05;;;20.70;99.90;;;;;;5067348;28;20040;-37
2023/08/01 12:18:29;;;;;;;4.43;1.80;;;20.30;99.90;;;;;;5073411;28;20028;-38
2023/08/01 12:20:56;;;;;;;3.92;2.00;;;19.80;99.90;;;;;;5069294;28;20492;-38
2023/08/01 12:23:22;;;;;;;4.63;1.58;;;19.40;99.90;;;;;;5072595;28;20132;-37
2023/08/01 12:25:49;;;;;;;4.10;1.90;;;19.20;99.90;;;;;;5071154;28;20405;-38
2023/08/01 12:28:15;;;;;;;4.63;2.03;;;19.10;99.90;;;;;;5082412;28;20075;-38
2023/08/01 12:30:41;;;;;;;3.92;2.67;;;18.90;99.90;;;;;;5072755;28;20036;-37
2023/08/01 12:33:08;;;;;;;4.63;2.42;;;18.90;99.90;;;;;;5045593;28;20052;-38
2023/08/01 12:35:33;;;;;;;5.35;1.92;;;18.90;99.90;;;;;;5066756;28;20040;-37
2023/08/01 12:37:59;;;;;;;6.70;2.15;;;19.10;99.90;;;;;;5080977;28;20031;-37
2023/08/01 12:40:25;;;;;;;7.13;2.60;;;19.60;99.90;;;;;;5070660;28;20045;-37
2023/08/01 12:42:51;;;;;;;7.03;2.38;;;20.20;99.90;;;;;;5066400;28;20120;-37
2023/08/01 12:45:17;;;;;;;5.00;2.30;;;20.80;99.90;;;;;;5077952;28;20037;-37
2023/08/01 12:47:43;;;;;;;3.58;1.90;;;20.90;99.90;;;;;;5046463;28;20052;-37